Friday, January 18, 2019, 11:18 PM EST
Back to Local

K40B, Clayton Lake

Location: Ashland, ME, United States Lat: 46.617
Local Time: 11:18 PM EST ( 4:18 GMT) Lon: -69.533
Time Zone: US/Eastern Elev: 1030 ft

Show me the last for .
Show Decoded

2019-01-18 22:16 METAR K40B 190316Z AUTO VRB03G13KT M11/M16 A2995 RMK AO1 SLP173 T11151164 51047
                 P0002 60009 =
2019-01-18 21:16 METAR K40B 190216Z AUTO 24010G24KT 110V320 M10/M14 A2992 RMK AO1 PK WND
                 25028/0148 SLP161 T10951143 53033 =
2019-01-18 20:16 METAR K40B 190116Z AUTO VRB06G17KT M06/M09 A2986 RMK AO1 SLP142 T10591093 53018
                 P0007 =
2019-01-18 19:16 METAR K40B 190016Z AUTO 20011G19KT 170V230 M05/M07 A2980 RMK AO1 SLP125
                 T10451068 11045 21071 57002 60003 =
2019-01-18 18:16 METAR K40B 182316Z AUTO 17008KT M05/M07 A2980 RMK AO1 SLP126 T10551072 56008 =
2019-01-18 17:16 METAR K40B 182216Z AUTO 17009KT M06/M08 A2980 RMK AO1 SLP128 T10571075 56017
                 P0001 =
2019-01-18 16:16 METAR K40B 182116Z AUTO 17007KT M06/M09 A2981 RMK AO1 SLP132 T10561088 57022
                 P0001 60002 =
2019-01-18 15:16 METAR K40B 182016Z AUTO VRB06KT M06/M10 A2983 RMK AO1 SLP140 T10581099 56031
                 P0002 =
2019-01-18 14:16 METAR K40B 181916Z AUTO 16007KT 110V180 M06/M11 A2985 RMK AO1 SLP150 T10601105
                 56037 =
2019-01-18 13:16 METAR K40B 181816Z AUTO VRB05KT M07/M11 A2988 RMK AO1 SLP161 T10701112 11071
                 21154 57041 P0003 60005 =
2019-01-18 12:20 METAR K40B 181720Z AUTO VRB06KT M08/M12 A2992 RMK AO1 SLP178 T10821122 58033
                 P0002 =
2019-01-18 11:18 METAR K40B 181618Z AUTO 17008G14KT M10/M14 A2997 RMK AO1 SLP194 T11021135 58023
                 P0000 =
2019-01-18 10:16 METAR K40B 181516Z AUTO 17006G14KT M12/M14 A3001 RMK AO1 SLP208 T11171144 58010
                 =
2019-01-18 09:16 METAR K40B 181416Z AUTO 17008KT M13/M16 A3002 RMK AO1 SLP216 T11351162 57009 =
2019-01-18 08:16 METAR K40B 181316Z AUTO 17009G13KT M14/M18 A3004 RMK AO1 SLP221 T11421181 56012
                 =
2019-01-18 07:16 METAR K40B 181216Z AUTO 17010G16KT M15/M20 A3004 RMK AO1 SLP222 T11531201 11153
                 21200 57019 P0002 60019 70155 =
2019-01-18 06:16 METAR K40B 181116Z AUTO 16008G13KT 130V190 M16/M21 A3005 RMK AO1 SLP229
                 T11591210 57023 P0009 =
2019-01-18 05:16 METAR K40B 181016Z AUTO 00000KT M17/M21 A3007 RMK AO1 SLP236 T11681208 56028
                 P0004 =
2019-01-18 04:16 METAR K40B 180916Z AUTO 00000KT M18/M21 A3009 RMK AO1 SLP245 T11791209 58022
                 P0003 60005 =
2019-01-18 03:16 METAR K40B 180816Z AUTO VRB04KT M18/M22 A3012 RMK AO1 SLP254 T11811223 58022 =
2019-01-18 02:16 METAR K40B 180716Z AUTO VRB02KT M19/M22 A3016 RMK AO1 SLP266 T11941224 56019
                 P0002 =
2019-01-18 01:16 METAR K40B 180616Z AUTO 00000KT M20/M23 A3016 RMK AO1 SLP266 T12001228 11196
                 21251 58018 P0001 60025 =
2019-01-18 00:16 METAR K40B 180516Z AUTO 00000KT M20/M23 A3019 RMK AO1 SLP276 T11971230 411551289
                 58008 P0004 =

Support USWX by starting your Amazon purchase here.